sensor_id;sensor_type;location;lat;lon;timestamp;P1;durP1;ratioP1;P2;durP2;ratioP2
7525;SDS011;3804;50.860;6.208;2023-04-03T00:01:16;3.80;;;3.23;;
7525;SDS011;3804;50.860;6.208;2023-04-03T00:03:43;5.67;;;3.20;;
7525;SDS011;3804;50.860;6.208;2023-04-03T00:06:11;5.50;;;2.87;;
7525;SDS011;3804;50.860;6.208;2023-04-03T00:08:38;3.30;;;2.83;;
7525;SDS011;3804;50.860;6.208;2023-04-03T00:11:06;4.73;;;3.23;;
7525;SDS011;3804;50.860;6.208;2023-04-03T00:13:33;6.43;;;3.17;;
7525;SDS011;3804;50.860;6.208;2023-04-03T00:16:00;3.43;;;3.00;;
7525;SDS011;3804;50.860;6.208;2023-04-03T00:18:26;4.13;;;3.23;;
7525;SDS011;3804;50.860;6.208;2023-04-03T00:20:53;9.17;;;3.30;;
7525;SDS011;3804;50.860;6.208;2023-04-03T00:23:20;6.20;;;2.80;;
7525;SDS011;3804;50.860;6.208;2023-04-03T00:25:47;6.20;;;3.27;;
7525;SDS011;3804;50.860;6.208;2023-04-03T00:28:14;6.17;;;3.33;;
7525;SDS011;3804;50.860;6.208;2023-04-03T00:30:41;4.63;;;2.90;;
7525;SDS011;3804;50.860;6.208;2023-04-03T00:33:09;9.83;;;3.10;;
7525;SDS011;3804;50.860;6.208;2023-04-03T00:35:38;6.80;;;3.47;;
7525;SDS011;3804;50.860;6.208;2023-04-03T00:38:06;4.57;;;3.10;;
7525;SDS011;3804;50.860;6.208;2023-04-03T00:40:39;6.03;;;3.37;;
7525;SDS011;3804;50.860;6.208;2023-04-03T00:43:15;4.20;;;2.97;;
7525;SDS011;3804;50.860;6.208;2023-04-03T00:45:43;7.50;;;3.57;;
7525;SDS011;3804;50.860;6.208;2023-04-03T00:48:11;3.73;;;3.00;;
7525;SDS011;3804;50.860;6.208;2023-04-03T00:50:40;5.87;;;3.50;;
7525;SDS011;3804;50.860;6.208;2023-04-03T00:53:08;4.17;;;3.20;;
7525;SDS011;3804;50.860;6.208;2023-04-03T00:55:38;3.87;;;3.47;;
7525;SDS011;3804;50.860;6.208;2023-04-03T00:58:05;6.33;;;3.60;;
7525;SDS011;3804;50.860;6.208;2023-04-03T01:00:34;4.30;;;3.70;;
7525;SDS011;3804;50.860;6.208;2023-04-03T01:03:02;6.83;;;3.43;;
7525;SDS011;3804;50.860;6.208;2023-04-03T01:05:29;6.93;;;3.87;;
7525;SDS011;3804;50.860;6.208;2023-04-03T01:07:58;6.03;;;3.10;;
7525;SDS011;3804;50.860;6.208;2023-04-03T01:10:25;7.20;;;3.40;;
7525;SDS011;3804;50.860;6.208;2023-04-03T01:12:52;5.07;;;3.30;;
7525;SDS011;3804;50.860;6.208;2023-04-03T01:15:24;4.03;;;3.20;;
7525;SDS011;3804;50.860;6.208;2023-04-03T01:17:53;4.20;;;3.10;;
7525;SDS011;3804;50.860;6.208;2023-04-03T01:25:39;3.27;;;2.93;;
7525;SDS011;3804;50.860;6.208;2023-04-03T01:28:09;6.50;;;3.20;;
7525;SDS011;3804;50.860;6.208;2023-04-03T01:30:39;5.47;;;3.10;;
7525;SDS011;3804;50.860;6.208;2023-04-03T01:33:07;5.50;;;3.50;;
7525;SDS011;3804;50.860;6.208;2023-04-03T01:35:34;3.43;;;3.13;;
7525;SDS011;3804;50.860;6.208;2023-04-03T01:38:01;7.50;;;4.00;;
7525;SDS011;3804;50.860;6.208;2023-04-03T01:40:28;5.87;;;3.70;;
7525;SDS011;3804;50.860;6.208;2023-04-03T01:42:55;6.50;;;4.00;;
7525;SDS011;3804;50.860;6.208;2023-04-03T01:45:22;5.87;;;3.67;;
7525;SDS011;3804;50.860;6.208;2023-04-03T01:47:49;6.20;;;4.30;;
7525;SDS011;3804;50.860;6.208;2023-04-03T01:50:18;6.57;;;4.17;;
7525;SDS011;3804;50.860;6.208;2023-04-03T01:52:45;5.23;;;4.43;;
7525;SDS011;3804;50.860;6.208;2023-04-03T01:55:12;6.90;;;4.03;;
7525;SDS011;3804;50.860;6.208;2023-04-03T01:57:38;4.97;;;4.40;;
7525;SDS011;3804;50.860;6.208;2023-04-03T02:00:05;6.83;;;4.50;;
7525;SDS011;3804;50.860;6.208;2023-04-03T02:02:38;8.30;;;4.87;;
7525;SDS011;3804;50.860;6.208;2023-04-03T02:05:06;7.30;;;4.80;;
7525;SDS011;3804;50.860;6.208;2023-04-03T02:07:32;8.30;;;5.23;;
7525;SDS011;3804;50.860;6.208;2023-04-03T02:10:00;6.83;;;5.10;;
7525;SDS011;3804;50.860;6.208;2023-04-03T02:12:27;7.87;;;4.73;;
7525;SDS011;3804;50.860;6.208;2023-04-03T02:14:54;7.87;;;5.43;;
7525;SDS011;3804;50.860;6.208;2023-04-03T02:17:20;7.93;;;5.47;;
7525;SDS011;3804;50.860;6.208;2023-04-03T02:19:47;8.03;;;5.93;;
7525;SDS011;3804;50.860;6.208;2023-04-03T02:22:14;8.20;;;6.17;;
7525;SDS011;3804;50.860;6.208;2023-04-03T02:24:41;8.00;;;6.23;;
7525;SDS011;3804;50.860;6.208;2023-04-03T02:27:08;9.57;;;6.87;;
7525;SDS011;3804;50.860;6.208;2023-04-03T02:29:34;8.50;;;6.40;;
7525;SDS011;3804;50.860;6.208;2023-04-03T02:32:01;8.73;;;6.17;;
7525;SDS011;3804;50.860;6.208;2023-04-03T02:34:30;11.00;;;6.87;;
7525;SDS011;3804;50.860;6.208;2023-04-03T02:36:59;8.23;;;6.33;;
7525;SDS011;3804;50.860;6.208;2023-04-03T02:39:26;8.80;;;6.53;;
7525;SDS011;3804;50.860;6.208;2023-04-03T02:41:54;10.77;;;6.93;;
7525;SDS011;3804;50.860;6.208;2023-04-03T02:44:24;8.87;;;6.63;;
7525;SDS011;3804;50.860;6.208;2023-04-03T02:46:52;9.10;;;7.20;;
7525;SDS011;3804;50.860;6.208;2023-04-03T02:49:19;10.13;;;7.40;;
7525;SDS011;3804;50.860;6.208;2023-04-03T02:51:46;9.77;;;7.23;;
7525;SDS011;3804;50.860;6.208;2023-04-03T02:54:14;10.30;;;7.60;;
7525;SDS011;3804;50.860;6.208;2023-04-03T02:56:45;10.60;;;7.50;;
7525;SDS011;3804;50.860;6.208;2023-04-03T02:59:12;14.57;;;7.37;;
7525;SDS011;3804;50.860;6.208;2023-04-03T03:01:40;10.20;;;7.20;;
7525;SDS011;3804;50.860;6.208;2023-04-03T03:04:07;9.50;;;7.60;;
7525;SDS011;3804;50.860;6.208;2023-04-03T03:06:33;9.67;;;8.00;;
7525;SDS011;3804;50.860;6.208;2023-04-03T03:09:01;13.90;;;7.37;;
7525;SDS011;3804;50.860;6.208;2023-04-03T03:11:28;8.67;;;6.93;;
7525;SDS011;3804;50.860;6.208;2023-04-03T03:13:54;10.17;;;6.60;;
7525;SDS011;3804;50.860;6.208;2023-04-03T03:16:24;11.73;;;7.13;;
7525;SDS011;3804;50.860;6.208;2023-04-03T03:18:51;12.37;;;7.63;;
7525;SDS011;3804;50.860;6.208;2023-04-03T03:21:18;14.07;;;8.97;;
7525;SDS011;3804;50.860;6.208;2023-04-03T03:23:45;10.53;;;7.30;;
7525;SDS011;3804;50.860;6.208;2023-04-03T03:26:12;9.63;;;7.40;;
7525;SDS011;3804;50.860;6.208;2023-04-03T03:28:39;10.07;;;7.40;;
7525;SDS011;3804;50.860;6.208;2023-04-03T03:31:07;10.30;;;7.83;;
7525;SDS011;3804;50.860;6.208;2023-04-03T03:33:36;11.30;;;7.67;;
7525;SDS011;3804;50.860;6.208;2023-04-03T03:36:03;11.87;;;7.83;;
7525;SDS011;3804;50.860;6.208;2023-04-03T03:38:30;12.17;;;8.20;;
7525;SDS011;3804;50.860;6.208;2023-04-03T03:40:59;10.83;;;8.30;;
7525;SDS011;3804;50.860;6.208;2023-04-03T03:43:26;13.57;;;8.53;;
7525;SDS011;3804;50.860;6.208;2023-04-03T03:45:53;11.53;;;8.37;;
7525;SDS011;3804;50.860;6.208;2023-04-03T03:48:22;15.70;;;9.40;;
7525;SDS011;3804;50.860;6.208;2023-04-03T03:50:49;19.03;;;9.77;;
7525;SDS011;3804;50.860;6.208;2023-04-03T03:53:18;16.27;;;9.30;;
7525;SDS011;3804;50.860;6.208;2023-04-03T03:55:48;17.17;;;9.30;;
7525;SDS011;3804;50.860;6.208;2023-04-03T03:58:15;15.90;;;9.93;;
7525;SDS011;3804;50.860;6.208;2023-04-03T04:00:42;15.73;;;10.70;;
7525;SDS011;3804;50.860;6.208;2023-04-03T04:03:10;16.23;;;10.70;;
7525;SDS011;3804;50.860;6.208;2023-04-03T04:05:37;16.37;;;10.10;;
7525;SDS011;3804;50.860;6.208;2023-04-03T04:08:04;12.40;;;10.87;;
7525;SDS011;3804;50.860;6.208;2023-04-03T04:10:32;17.00;;;11.67;;
7525;SDS011;3804;50.860;6.208;2023-04-03T04:12:59;15.40;;;11.10;;
7525;SDS011;3804;50.860;6.208;2023-04-03T04:15:29;18.87;;;11.43;;
7525;SDS011;3804;50.860;6.208;2023-04-03T04:17:57;18.50;;;12.83;;
7525;SDS011;3804;50.860;6.208;2023-04-03T04:20:24;15.97;;;11.83;;
7525;SDS011;3804;50.860;6.208;2023-04-03T04:22:52;15.93;;;12.27;;
7525;SDS011;3804;50.860;6.208;2023-04-03T04:25:20;19.40;;;13.60;;
7525;SDS011;3804;50.860;6.208;2023-04-03T04:27:48;23.03;;;13.97;;
7525;SDS011;3804;50.860;6.208;2023-04-03T04:30:15;22.07;;;14.27;;
7525;SDS011;3804;50.860;6.208;2023-04-03T04:32:44;25.63;;;14.10;;
7525;SDS011;3804;50.860;6.208;2023-04-03T04:35:12;20.93;;;13.87;;
7525;SDS011;3804;50.860;6.208;2023-04-03T04:37:45;21.10;;;13.70;;
7525;SDS011;3804;50.860;6.208;2023-04-03T04:40:12;20.87;;;14.03;;
7525;SDS011;3804;50.860;6.208;2023-04-03T04:42:40;21.90;;;15.07;;
7525;SDS011;3804;50.860;6.208;2023-04-03T04:45:07;22.33;;;14.47;;
7525;SDS011;3804;50.860;6.208;2023-04-03T04:47:35;22.40;;;15.47;;
7525;SDS011;3804;50.860;6.208;2023-04-03T04:50:03;25.57;;;15.23;;
7525;SDS011;3804;50.860;6.208;2023-04-03T04:52:31;26.83;;;14.93;;
7525;SDS011;3804;50.860;6.208;2023-04-03T04:54:58;22.70;;;14.27;;
7525;SDS011;3804;50.860;6.208;2023-04-03T04:57:25;20.43;;;13.27;;
7525;SDS011;3804;50.860;6.208;2023-04-03T04:59:53;20.73;;;14.33;;
7525;SDS011;3804;50.860;6.208;2023-04-03T05:02:20;18.00;;;14.03;;
7525;SDS011;3804;50.860;6.208;2023-04-03T05:04:47;21.30;;;14.60;;
7525;SDS011;3804;50.860;6.208;2023-04-03T05:07:19;25.47;;;15.27;;
7525;SDS011;3804;50.860;6.208;2023-04-03T05:09:46;22.60;;;14.27;;
7525;SDS011;3804;50.860;6.208;2023-04-03T05:12:15;24.13;;;13.77;;
7525;SDS011;3804;50.860;6.208;2023-04-03T05:14:48;20.73;;;14.63;;
7525;SDS011;3804;50.860;6.208;2023-04-03T05:17:15;23.50;;;14.17;;
7525;SDS011;3804;50.860;6.208;2023-04-03T05:19:47;18.57;;;13.53;;
7525;SDS011;3804;50.860;6.208;2023-04-03T05:22:15;27.30;;;14.37;;
7525;SDS011;3804;50.860;6.208;2023-04-03T05:24:43;18.63;;;13.97;;
7525;SDS011;3804;50.860;6.208;2023-04-03T05:27:11;21.67;;;13.67;;
7525;SDS011;3804;50.860;6.208;2023-04-03T05:29:42;18.57;;;13.77;;
7525;SDS011;3804;50.860;6.208;2023-04-03T05:32:14;17.30;;;12.23;;
7525;SDS011;3804;50.860;6.208;2023-04-03T05:34:42;23.70;;;13.30;;
7525;SDS011;3804;50.860;6.208;2023-04-03T05:37:09;19.27;;;12.97;;
7525;SDS011;3804;50.860;6.208;2023-04-03T05:39:36;19.53;;;13.17;;
7525;SDS011;3804;50.860;6.208;2023-04-03T05:42:05;18.27;;;12.60;;
7525;SDS011;3804;50.860;6.208;2023-04-03T05:44:33;19.10;;;12.40;;
7525;SDS011;3804;50.860;6.208;2023-04-03T05:47:00;20.87;;;12.87;;
7525;SDS011;3804;50.860;6.208;2023-04-03T05:49:28;18.53;;;12.20;;
7525;SDS011;3804;50.860;6.208;2023-04-03T05:51:55;16.73;;;12.57;;
7525;SDS011;3804;50.860;6.208;2023-04-03T05:54:25;19.30;;;12.07;;
7525;SDS011;3804;50.860;6.208;2023-04-03T05:56:59;16.23;;;11.77;;
7525;SDS011;3804;50.860;6.208;2023-04-03T05:59:28;18.57;;;11.20;;
7525;SDS011;3804;50.860;6.208;2023-04-03T06:01:57;17.33;;;12.10;;
7525;SDS011;3804;50.860;6.208;2023-04-03T06:04:24;17.57;;;11.90;;
7525;SDS011;3804;50.860;6.208;2023-04-03T06:06:55;16.70;;;9.63;;
7525;SDS011;3804;50.860;6.208;2023-04-03T06:09:25;15.63;;;10.47;;
7525;SDS011;3804;50.860;6.208;2023-04-03T06:11:52;14.70;;;10.10;;
7525;SDS011;3804;50.860;6.208;2023-04-03T06:14:22;15.23;;;9.13;;
7525;SDS011;3804;50.860;6.208;2023-04-03T06:16:49;23.67;;;14.33;;
7525;SDS011;3804;50.860;6.208;2023-04-03T06:19:16;12.20;;;9.57;;
7525;SDS011;3804;50.860;6.208;2023-04-03T06:21:48;14.10;;;9.77;;
7525;SDS011;3804;50.860;6.208;2023-04-03T06:24:15;16.60;;;9.03;;
7525;SDS011;3804;50.860;6.208;2023-04-03T06:26:42;14.27;;;8.90;;
7525;SDS011;3804;50.860;6.208;2023-04-03T06:29:09;12.53;;;8.50;;
7525;SDS011;3804;50.860;6.208;2023-04-03T06:31:36;12.20;;;8.50;;
7525;SDS011;3804;50.860;6.208;2023-04-03T06:34:03;13.67;;;8.00;;
7525;SDS011;3804;50.860;6.208;2023-04-03T06:36:31;13.03;;;8.10;;
7525;SDS011;3804;50.860;6.208;2023-04-03T06:38:58;11.57;;;8.87;;
7525;SDS011;3804;50.860;6.208;2023-04-03T06:41:25;11.10;;;8.40;;
7525;SDS011;3804;50.860;6.208;2023-04-03T06:43:53;13.17;;;8.50;;
7525;SDS011;3804;50.860;6.208;2023-04-03T06:46:20;14.00;;;9.03;;
7525;SDS011;3804;50.860;6.208;2023-04-03T06:48:48;10.80;;;8.40;;
7525;SDS011;3804;50.860;6.208;2023-04-03T06:51:20;11.43;;;7.47;;
7525;SDS011;3804;50.860;6.208;2023-04-03T06:53:48;9.63;;;6.37;;
7525;SDS011;3804;50.860;6.208;2023-04-03T06:56:15;8.97;;;7.23;;
7525;SDS011;3804;50.860;6.208;2023-04-03T06:58:43;9.93;;;7.77;;
7525;SDS011;3804;50.860;6.208;2023-04-03T07:01:12;7.23;;;6.30;;
7525;SDS011;3804;50.860;6.208;2023-04-03T07:03:39;10.80;;;7.00;;
7525;SDS011;3804;50.860;6.208;2023-04-03T07:06:07;11.03;;;6.60;;
7525;SDS011;3804;50.860;6.208;2023-04-03T07:08:34;9.73;;;5.53;;
7525;SDS011;3804;50.860;6.208;2023-04-03T07:11:01;7.80;;;5.60;;
7525;SDS011;3804;50.860;6.208;2023-04-03T07:13:29;8.67;;;5.17;;
7525;SDS011;3804;50.860;6.208;2023-04-03T07:15:56;6.03;;;4.40;;
7525;SDS011;3804;50.860;6.208;2023-04-03T07:18:24;7.40;;;4.73;;
7525;SDS011;3804;50.860;6.208;2023-04-03T07:20:51;7.07;;;4.57;;
7525;SDS011;3804;50.860;6.208;2023-04-03T07:23:18;7.67;;;3.97;;
7525;SDS011;3804;50.860;6.208;2023-04-03T07:25:46;4.57;;;2.93;;
7525;SDS011;3804;50.860;6.208;2023-04-03T07:28:13;9.00;;;3.10;;
7525;SDS011;3804;50.860;6.208;2023-04-03T07:30:47;5.03;;;2.57;;
7525;SDS011;3804;50.860;6.208;2023-04-03T07:33:15;6.13;;;2.40;;
7525;SDS011;3804;50.860;6.208;2023-04-03T07:35:42;4.10;;;2.30;;
7525;SDS011;3804;50.860;6.208;2023-04-03T07:38:09;4.50;;;2.23;;
7525;SDS011;3804;50.860;6.208;2023-04-03T07:40:38;3.47;;;2.40;;
7525;SDS011;3804;50.860;6.208;2023-04-03T07:43:05;3.70;;;2.00;;
7525;SDS011;3804;50.860;6.208;2023-04-03T07:45:34;4.23;;;1.80;;
7525;SDS011;3804;50.860;6.208;2023-04-03T07:48:01;3.13;;;1.87;;
7525;SDS011;3804;50.860;6.208;2023-04-03T07:50:29;4.00;;;1.73;;
7525;SDS011;3804;50.860;6.208;2023-04-03T07:52:57;6.47;;;2.13;;
7525;SDS011;3804;50.860;6.208;2023-04-03T07:55:25;3.17;;;2.13;;
7525;SDS011;3804;50.860;6.208;2023-04-03T07:57:51;2.47;;;1.90;;
7525;SDS011;3804;50.860;6.208;2023-04-03T08:00:18;4.03;;;1.83;;
7525;SDS011;3804;50.860;6.208;2023-04-03T08:02:46;2.03;;;1.43;;
7525;SDS011;3804;50.860;6.208;2023-04-03T08:05:18;4.57;;;2.07;;
7525;SDS011;3804;50.860;6.208;2023-04-03T08:07:46;1.90;;;1.63;;
7525;SDS011;3804;50.860;6.208;2023-04-03T08:10:13;3.43;;;1.90;;
7525;SDS011;3804;50.860;6.208;2023-04-03T08:12:41;1.93;;;1.53;;
7525;SDS011;3804;50.860;6.208;2023-04-03T08:15:08;4.57;;;1.50;;
7525;SDS011;3804;50.860;6.208;2023-04-03T08:17:35;6.07;;;2.23;;
7525;SDS011;3804;50.860;6.208;2023-04-03T08:20:03;1.60;;;1.50;;
7525;SDS011;3804;50.860;6.208;2023-04-03T08:22:31;4.63;;;2.07;;
7525;SDS011;3804;50.860;6.208;2023-04-03T08:24:57;2.83;;;1.60;;
7525;SDS011;3804;50.860;6.208;2023-04-03T08:27:25;2.23;;;1.77;;
7525;SDS011;3804;50.860;6.208;2023-04-03T08:29:54;3.20;;;1.60;;
7525;SDS011;3804;50.860;6.208;2023-04-03T08:32:21;5.90;;;1.73;;
7525;SDS011;3804;50.860;6.208;2023-04-03T08:34:47;3.77;;;1.67;;
7525;SDS011;3804;50.860;6.208;2023-04-03T08:37:14;3.63;;;1.87;;
7525;SDS011;3804;50.860;6.208;2023-04-03T08:39:43;7.10;;;1.83;;
7525;SDS011;3804;50.860;6.208;2023-04-03T08:42:19;3.93;;;2.00;;
7525;SDS011;3804;50.860;6.208;2023-04-03T08:44:53;2.37;;;1.70;;
7525;SDS011;3804;50.860;6.208;2023-04-03T08:47:36;4.77;;;1.90;;
7525;SDS011;3804;50.860;6.208;2023-04-03T08:50:11;2.33;;;1.70;;
7525;SDS011;3804;50.860;6.208;2023-04-03T08:52:39;3.93;;;2.40;;
7525;SDS011;3804;50.860;6.208;2023-04-03T08:57:59;4.10;;;2.00;;
7525;SDS011;3804;50.860;6.208;2023-04-03T09:00:28;1.97;;;1.77;;
7525;SDS011;3804;50.860;6.208;2023-04-03T09:02:56;4.47;;;1.77;;
7525;SDS011;3804;50.860;6.208;2023-04-03T09:07:56;3.17;;;1.87;;
7525;SDS011;3804;50.860;6.208;2023-04-03T09:10:27;5.47;;;2.23;;
7525;SDS011;3804;50.860;6.208;2023-04-03T09:12:59;2.77;;;2.00;;
7525;SDS011;3804;50.860;6.208;2023-04-03T09:15:29;3.67;;;2.13;;
7525;SDS011;3804;50.860;6.208;2023-04-03T09:23:27;3.00;;;2.17;;
7525;SDS011;3804;50.860;6.208;2023-04-03T09:25:58;3.07;;;2.13;;
7525;SDS011;3804;50.860;6.208;2023-04-03T09:28:26;5.83;;;2.80;;
7525;SDS011;3804;50.860;6.208;2023-04-03T09:31:01;2.23;;;1.57;;
7525;SDS011;3804;50.860;6.208;2023-04-03T09:33:28;3.23;;;2.07;;
7525;SDS011;3804;50.860;6.208;2023-04-03T09:35:57;2.77;;;1.63;;
7525;SDS011;3804;50.860;6.208;2023-04-03T09:38:23;4.73;;;2.00;;
7525;SDS011;3804;50.860;6.208;2023-04-03T09:43:29;2.93;;;1.67;;
7525;SDS011;3804;50.860;6.208;2023-04-03T09:48:55;6.57;;;2.17;;
7525;SDS011;3804;50.860;6.208;2023-04-03T09:51:34;3.37;;;1.80;;
7525;SDS011;3804;50.860;6.208;2023-04-03T09:54:00;3.20;;;1.33;;
7525;SDS011;3804;50.860;6.208;2023-04-03T09:56:50;2.60;;;1.60;;
7525;SDS011;3804;50.860;6.208;2023-04-03T09:59:18;2.60;;;1.70;;
7525;SDS011;3804;50.860;6.208;2023-04-03T10:02:17;3.00;;;1.57;;
7525;SDS011;3804;50.860;6.208;2023-04-03T10:04:47;3.27;;;1.57;;
7525;SDS011;3804;50.860;6.208;2023-04-03T10:09:54;1.80;;;1.40;;
7525;SDS011;3804;50.860;6.208;2023-04-03T10:12:21;2.30;;;1.47;;
7525;SDS011;3804;50.860;6.208;2023-04-03T10:22:36;3.57;;;1.40;;
7525;SDS011;3804;50.860;6.208;2023-04-03T10:30:19;1.37;;;1.17;;
7525;SDS011;3804;50.860;6.208;2023-04-03T10:40:50;3.17;;;1.20;;
7525;SDS011;3804;50.860;6.208;2023-04-03T10:48:38;6.20;;;1.60;;
7525;SDS011;3804;50.860;6.208;2023-04-03T10:56:22;2.93;;;1.30;;
7525;SDS011;3804;50.860;6.208;2023-04-03T10:59:02;2.00;;;1.30;;
7525;SDS011;3804;50.860;6.208;2023-04-03T11:01:33;2.07;;;1.33;;
7525;SDS011;3804;50.860;6.208;2023-04-03T11:04:04;2.50;;;1.20;;
7525;SDS011;3804;50.860;6.208;2023-04-03T11:06:34;1.73;;;1.43;;
7525;SDS011;3804;50.860;6.208;2023-04-03T11:09:05;1.07;;;0.93;;
7525;SDS011;3804;50.860;6.208;2023-04-03T11:11:36;3.27;;;1.27;;
7525;SDS011;3804;50.860;6.208;2023-04-03T11:16:43;3.80;;;1.27;;
7525;SDS011;3804;50.860;6.208;2023-04-03T11:19:35;1.10;;;1.00;;
7525;SDS011;3804;50.860;6.208;2023-04-03T11:27:43;3.50;;;1.40;;
7525;SDS011;3804;50.860;6.208;2023-04-03T11:30:28;2.20;;;1.27;;
7525;SDS011;3804;50.860;6.208;2023-04-03T11:35:44;3.63;;;1.30;;
7525;SDS011;3804;50.860;6.208;2023-04-03T11:38:23;2.07;;;1.57;;
7525;SDS011;3804;50.860;6.208;2023-04-03T11:40:53;3.13;;;1.43;;
7525;SDS011;3804;50.860;6.208;2023-04-03T11:45:50;3.03;;;1.37;;
7525;SDS011;3804;50.860;6.208;2023-04-03T11:50:56;2.93;;;1.27;;
7525;SDS011;3804;50.860;6.208;2023-04-03T11:53:39;3.93;;;1.20;;
7525;SDS011;3804;50.860;6.208;2023-04-03T12:04:18;1.43;;;1.00;;
7525;SDS011;3804;50.860;6.208;2023-04-03T12:09:24;1.97;;;1.13;;
7525;SDS011;3804;50.860;6.208;2023-04-03T12:11:52;4.73;;;1.43;;
7525;SDS011;3804;50.860;6.208;2023-04-03T12:14:20;3.90;;;1.23;;
7525;SDS011;3804;50.860;6.208;2023-04-03T12:16:49;2.80;;;1.93;;
7525;SDS011;3804;50.860;6.208;2023-04-03T12:24:29;2.87;;;1.50;;
7525;SDS011;3804;50.860;6.208;2023-04-03T12:34:49;2.63;;;1.43;;
7525;SDS011;3804;50.860;6.208;2023-04-03T12:37:22;1.27;;;1.10;;
7525;SDS011;3804;50.860;6.208;2023-04-03T12:40:09;3.43;;;1.43;;
7525;SDS011;3804;50.860;6.208;2023-04-03T12:45:15;1.10;;;1.00;;
7525;SDS011;3804;50.860;6.208;2023-04-03T12:47:44;2.83;;;1.10;;
7525;SDS011;3804;50.860;6.208;2023-04-03T12:50:18;3.00;;;1.37;;
7525;SDS011;3804;50.860;6.208;2023-04-03T12:52:50;2.97;;;1.30;;
7525;SDS011;3804;50.860;6.208;2023-04-03T12:55:18;2.67;;;1.23;;
7525;SDS011;3804;50.860;6.208;2023-04-03T12:57:45;2.23;;;0.93;;
7525;SDS011;3804;50.860;6.208;2023-04-03T13:03:01;3.17;;;1.40;;
7525;SDS011;3804;50.860;6.208;2023-04-03T13:05:28;2.77;;;1.30;;
7525;SDS011;3804;50.860;6.208;2023-04-03T13:07:58;1.40;;;1.30;;
7525;SDS011;3804;50.860;6.208;2023-04-03T13:10:25;2.30;;;1.20;;
7525;SDS011;3804;50.860;6.208;2023-04-03T13:12:53;1.40;;;0.80;;
7525;SDS011;3804;50.860;6.208;2023-04-03T13:15:25;4.77;;;1.20;;
7525;SDS011;3804;50.860;6.208;2023-04-03T13:17:52;1.97;;;1.30;;
7525;SDS011;3804;50.860;6.208;2023-04-03T13:22:48;1.97;;;1.20;;
7525;SDS011;3804;50.860;6.208;2023-04-03T13:25:16;1.13;;;1.00;;
7525;SDS011;3804;50.860;6.208;2023-04-03T13:27:43;1.67;;;0.97;;
7525;SDS011;3804;50.860;6.208;2023-04-03T13:30:28;2.27;;;1.03;;
7525;SDS011;3804;50.860;6.208;2023-04-03T13:32:56;2.63;;;1.60;;
7525;SDS011;3804;50.860;6.208;2023-04-03T13:35:27;2.30;;;1.20;;
7525;SDS011;3804;50.860;6.208;2023-04-03T13:37:55;1.47;;;0.93;;
7525;SDS011;3804;50.860;6.208;2023-04-03T13:40:21;1.33;;;1.20;;
7525;SDS011;3804;50.860;6.208;2023-04-03T13:43:14;1.97;;;1.17;;
7525;SDS011;3804;50.860;6.208;2023-04-03T13:48:26;2.87;;;1.10;;
7525;SDS011;3804;50.860;6.208;2023-04-03T13:51:13;3.30;;;1.57;;
7525;SDS011;3804;50.860;6.208;2023-04-03T13:53:45;2.53;;;1.40;;
7525;SDS011;3804;50.860;6.208;2023-04-03T13:56:19;2.77;;;1.50;;
7525;SDS011;3804;50.860;6.208;2023-04-03T13:58:58;1.50;;;1.20;;
7525;SDS011;3804;50.860;6.208;2023-04-03T14:01:26;2.70;;;1.50;;
7525;SDS011;3804;50.860;6.208;2023-04-03T14:04:00;2.17;;;1.10;;
7525;SDS011;3804;50.860;6.208;2023-04-03T14:06:27;2.70;;;1.13;;
7525;SDS011;3804;50.860;6.208;2023-04-03T14:08:55;3.13;;;1.07;;
7525;SDS011;3804;50.860;6.208;2023-04-03T14:11:24;0.90;;;0.90;;
7525;SDS011;3804;50.860;6.208;2023-04-03T14:13:53;1.33;;;1.10;;
7525;SDS011;3804;50.860;6.208;2023-04-03T14:16:23;1.37;;;0.97;;
7525;SDS011;3804;50.860;6.208;2023-04-03T14:18:50;3.03;;;1.03;;
7525;SDS011;3804;50.860;6.208;2023-04-03T14:21:18;2.40;;;1.17;;
7525;SDS011;3804;50.860;6.208;2023-04-03T14:23:45;4.57;;;1.30;;
7525;SDS011;3804;50.860;6.208;2023-04-03T14:26:17;1.67;;;1.43;;
7525;SDS011;3804;50.860;6.208;2023-04-03T14:28:45;2.33;;;1.07;;
7525;SDS011;3804;50.860;6.208;2023-04-03T14:31:12;1.87;;;1.20;;
7525;SDS011;3804;50.860;6.208;2023-04-03T14:33:39;3.03;;;1.10;;
7525;SDS011;3804;50.860;6.208;2023-04-03T14:36:25;1.30;;;1.20;;
7525;SDS011;3804;50.860;6.208;2023-04-03T14:38:53;3.97;;;1.33;;
7525;SDS011;3804;50.860;6.208;2023-04-03T14:41:21;1.43;;;1.03;;
7525;SDS011;3804;50.860;6.208;2023-04-03T14:43:49;1.80;;;0.90;;
7525;SDS011;3804;50.860;6.208;2023-04-03T14:46:34;3.20;;;1.27;;
7525;SDS011;3804;50.860;6.208;2023-04-03T14:49:22;1.27;;;0.80;;
7525;SDS011;3804;50.860;6.208;2023-04-03T14:51:50;2.07;;;1.03;;
7525;SDS011;3804;50.860;6.208;2023-04-03T14:54:18;1.73;;;0.87;;
7525;SDS011;3804;50.860;6.208;2023-04-03T14:56:52;1.63;;;1.17;;
7525;SDS011;3804;50.860;6.208;2023-04-03T14:59:19;3.93;;;1.00;;
7525;SDS011;3804;50.860;6.208;2023-04-03T15:01:48;1.57;;;1.00;;
7525;SDS011;3804;50.860;6.208;2023-04-03T15:04:16;1.43;;;1.10;;
7525;SDS011;3804;50.860;6.208;2023-04-03T15:06:43;0.97;;;0.97;;
7525;SDS011;3804;50.860;6.208;2023-04-03T15:09:29;0.70;;;0.70;;
7525;SDS011;3804;50.860;6.208;2023-04-03T15:11:57;1.60;;;1.10;;
7525;SDS011;3804;50.860;6.208;2023-04-03T15:14:24;1.23;;;0.87;;
7525;SDS011;3804;50.860;6.208;2023-04-03T15:17:04;2.53;;;0.90;;
7525;SDS011;3804;50.860;6.208;2023-04-03T15:19:32;1.80;;;0.90;;
7525;SDS011;3804;50.860;6.208;2023-04-03T15:22:02;3.63;;;1.00;;
7525;SDS011;3804;50.860;6.208;2023-04-03T15:24:29;2.00;;;1.03;;
7525;SDS011;3804;50.860;6.208;2023-04-03T15:26:56;0.97;;;0.70;;
7525;SDS011;3804;50.860;6.208;2023-04-03T15:29:23;3.67;;;1.20;;
7525;SDS011;3804;50.860;6.208;2023-04-03T15:31:50;1.00;;;0.90;;
7525;SDS011;3804;50.860;6.208;2023-04-03T15:34:20;2.43;;;0.90;;
7525;SDS011;3804;50.860;6.208;2023-04-03T15:36:49;2.30;;;0.97;;
7525;SDS011;3804;50.860;6.208;2023-04-03T15:39:15;3.50;;;1.20;;
7525;SDS011;3804;50.860;6.208;2023-04-03T15:41:43;2.40;;;1.20;;
7525;SDS011;3804;50.860;6.208;2023-04-03T15:44:11;1.93;;;1.50;;
7525;SDS011;3804;50.860;6.208;2023-04-03T15:46:38;1.87;;;1.27;;
7525;SDS011;3804;50.860;6.208;2023-04-03T15:49:06;2.83;;;1.10;;
7525;SDS011;3804;50.860;6.208;2023-04-03T15:51:33;4.10;;;1.40;;
7525;SDS011;3804;50.860;6.208;2023-04-03T15:53:59;3.30;;;1.33;;
7525;SDS011;3804;50.860;6.208;2023-04-03T15:56:26;1.63;;;1.47;;
7525;SDS011;3804;50.860;6.208;2023-04-03T15:58:53;1.17;;;1.00;;
7525;SDS011;3804;50.860;6.208;2023-04-03T16:01:20;2.87;;;1.30;;
7525;SDS011;3804;50.860;6.208;2023-04-03T16:03:47;2.77;;;1.50;;
7525;SDS011;3804;50.860;6.208;2023-04-03T16:06:14;7.97;;;4.03;;
7525;SDS011;3804;50.860;6.208;2023-04-03T16:08:49;2.23;;;1.73;;
7525;SDS011;3804;50.860;6.208;2023-04-03T16:11:16;2.00;;;1.30;;
7525;SDS011;3804;50.860;6.208;2023-04-03T16:13:43;2.23;;;1.50;;
7525;SDS011;3804;50.860;6.208;2023-04-03T16:16:09;2.93;;;1.43;;
7525;SDS011;3804;50.860;6.208;2023-04-03T16:18:36;2.83;;;1.30;;
7525;SDS011;3804;50.860;6.208;2023-04-03T16:21:03;1.60;;;1.20;;
7525;SDS011;3804;50.860;6.208;2023-04-03T16:23:32;2.17;;;1.20;;
7525;SDS011;3804;50.860;6.208;2023-04-03T16:25:59;3.43;;;1.50;;
7525;SDS011;3804;50.860;6.208;2023-04-03T16:28:26;3.07;;;1.00;;
7525;SDS011;3804;50.860;6.208;2023-04-03T16:30:53;2.93;;;1.60;;
7525;SDS011;3804;50.860;6.208;2023-04-03T16:33:20;2.10;;;1.27;;
7525;SDS011;3804;50.860;6.208;2023-04-03T16:35:49;2.60;;;1.13;;
7525;SDS011;3804;50.860;6.208;2023-04-03T16:38:16;2.27;;;1.33;;
7525;SDS011;3804;50.860;6.208;2023-04-03T16:40:45;3.93;;;1.30;;
7525;SDS011;3804;50.860;6.208;2023-04-03T16:43:12;3.33;;;1.17;;
7525;SDS011;3804;50.860;6.208;2023-04-03T16:45:39;1.60;;;1.40;;
7525;SDS011;3804;50.860;6.208;2023-04-03T16:48:06;4.03;;;1.63;;
7525;SDS011;3804;50.860;6.208;2023-04-03T16:50:33;1.20;;;1.10;;
7525;SDS011;3804;50.860;6.208;2023-04-03T16:53:01;1.83;;;1.50;;
7525;SDS011;3804;50.860;6.208;2023-04-03T16:55:29;1.60;;;0.97;;
7525;SDS011;3804;50.860;6.208;2023-04-03T16:57:56;1.63;;;1.30;;
7525;SDS011;3804;50.860;6.208;2023-04-03T17:00:23;1.83;;;1.27;;
7525;SDS011;3804;50.860;6.208;2023-04-03T17:02:50;1.80;;;0.93;;
7525;SDS011;3804;50.860;6.208;2023-04-03T17:05:17;3.33;;;1.70;;
7525;SDS011;3804;50.860;6.208;2023-04-03T17:07:44;2.27;;;1.40;;